Time,TemperatureF,DewpointF,PressureIn,WindDirection,WindDirectionDegrees,WindSpeedMPH,WindSpeedGustMPH,Humidity,HourlyPrecipIn,Conditions,Clouds,dailyrainin,SoftwareType,DateUTC
2013-04-27 00:04:00,44.6,40.0,30.38,SE,144,0.0,-999.0,85,-99.99,,,0.00,weatherlink.com 1.10,2013-04-27 04:04:00,
2013-04-27 00:19:00,44.3,40.0,30.39,SE,144,0.0,-999.0,85,-99.99,,,0.00,weatherlink.com 1.10,2013-04-27 04:19:00,
2013-04-27 00:34:00,43.4,40.0,30.39,SE,144,0.0,-999.0,86,-99.99,,,0.00,weatherlink.com 1.10,2013-04-27 04:34:00,
2013-04-27 00:49:00,42.6,39.0,30.39,SE,144,0.0,-999.0,88,-99.99,,,0.00,weatherlink.com 1.10,2013-04-27 04:49:00,
2013-04-27 01:04:00,41.6,39.0,30.39,SE,144,0.0,-999.0,89,-99.99,,,0.00,weatherlink.com 1.10,2013-04-27 05:04:00,
2013-04-27 01:19:00,40.7,38.0,30.38,SE,144,0.0,-999.0,90,-99.99,,,0.00,weatherlink.com 1.10,2013-04-27 05:19:00,
2013-04-27 01:34:00,40.2,38.0,30.38,SE,144,0.0,-999.0,91,-99.99,,,0.00,weatherlink.com 1.10,2013-04-27 05:34:00,
2013-04-27 01:49:00,39.3,37.0,30.38,SE,144,0.0,-999.0,92,-99.99,,,0.00,weatherlink.com 1.10,2013-04-27 05:49:00,
2013-04-27 02:04:00,38.8,37.0,30.38,SE,144,0.0,-999.0,93,-99.99,,,0.00,weatherlink.com 1.10,2013-04-27 06:04:00,
2013-04-27 02:19:00,38.2,37.0,30.38,SE,144,0.0,-999.0,94,-99.99,,,0.00,weatherlink.com 1.10,2013-04-27 06:19:00,
2013-04-27 02:34:00,37.6,36.0,30.38,SE,144,0.0,-999.0,94,-99.99,,,0.00,weatherlink.com 1.10,2013-04-27 06:34:00,
2013-04-27 02:49:00,37.1,36.0,30.38,SE,144,0.0,-999.0,94,-99.99,,,0.00,weatherlink.com 1.10,2013-04-27 06:49:00,
2013-04-27 03:04:00,36.6,35.0,30.37,SE,144,0.0,-999.0,95,-99.99,,,0.00,weatherlink.com 1.10,2013-04-27 07:04:00,
2013-04-27 03:19:00,36.2,35.0,30.37,SE,144,0.0,-999.0,95,-99.99,,,0.00,weatherlink.com 1.10,2013-04-27 07:19:00,
2013-04-27 03:34:00,35.9,35.0,30.37,SE,144,0.0,-999.0,95,-99.99,,,0.00,weatherlink.com 1.10,2013-04-27 07:34:00,
2013-04-27 03:49:00,35.6,35.0,30.37,SE,144,0.0,-999.0,96,-99.99,,,0.00,weatherlink.com 1.10,2013-04-27 07:49:00,
2013-04-27 04:04:00,35.3,34.0,30.37,SE,144,0.0,-999.0,96,-99.99,,,0.00,weatherlink.com 1.10,2013-04-27 08:04:00,
2013-04-27 04:19:00,34.9,34.0,30.37,SE,144,0.0,-999.0,96,-99.99,,,0.00,weatherlink.com 1.10,2013-04-27 08:19:00,
2013-04-27 04:34:00,34.7,34.0,30.37,SE,144,0.0,-999.0,96,-99.99,,,0.00,weatherlink.com 1.10,2013-04-27 08:34:00,
2013-04-27 04:49:00,34.4,33.0,30.36,SE,144,0.0,-999.0,96,-99.99,,,0.00,weatherlink.com 1.10,2013-04-27 08:49:00,
2013-04-27 05:04:00,34.2,33.0,30.36,SE,144,0.0,-999.0,96,-99.99,,,0.00,weatherlink.com 1.10,2013-04-27 09:04:00,
2013-04-27 05:19:00,34.3,34.0,30.36,SE,144,0.0,-999.0,97,-99.99,,,0.00,weatherlink.com 1.10,2013-04-27 09:19:00,
2013-04-27 05:34:00,33.8,33.0,30.37,SE,144,0.0,-999.0,97,-99.99,,,0.00,weatherlink.com 1.10,2013-04-27 09:34:00,
2013-04-27 05:49:00,33.8,33.0,30.37,SE,144,0.0,-999.0,97,-99.99,,,0.00,weatherlink.com 1.10,2013-04-27 09:49:00,
2013-04-27 06:04:00,33.9,33.0,30.37,SE,144,0.0,-999.0,97,-99.99,,,0.00,weatherlink.com 1.10,2013-04-27 10:04:00,
2013-04-27 06:19:00,33.8,33.0,30.37,SE,144,0.0,-999.0,97,-99.99,,,0.00,weatherlink.com 1.10,2013-04-27 10:19:00,
2013-04-27 06:34:00,34.2,34.0,30.37,SE,144,0.0,-999.0,97,-99.99,,,0.00,weatherlink.com 1.10,2013-04-27 10:34:00,
2013-04-27 06:49:00,34.8,34.0,30.38,SE,144,0.0,-999.0,97,-99.99,,,0.00,weatherlink.com 1.10,2013-04-27 10:49:00,
2013-04-27 07:04:00,36.0,35.0,30.38,SE,144,0.0,-999.0,97,-99.99,,,0.00,weatherlink.com 1.10,2013-04-27 11:04:00,
2013-04-27 07:19:00,37.8,37.0,30.38,SE,144,0.0,-999.0,97,-99.99,,,0.00,weatherlink.com 1.10,2013-04-27 11:19:00,
2013-04-27 07:34:00,39.9,39.0,30.38,SE,144,0.0,-999.0,98,-99.99,,,0.00,weatherlink.com 1.10,2013-04-27 11:34:00,
2013-04-27 07:49:00,43.6,42.0,30.38,SE,144,0.0,-999.0,94,-99.99,,,0.00,weatherlink.com 1.10,2013-04-27 11:49:00,
2013-04-27 08:04:00,46.2,41.0,30.38,SE,142,0.0,-999.0,82,-99.99,,,0.00,weatherlink.com 1.10,2013-04-27 12:04:00,
2013-04-27 08:19:00,47.9,40.0,30.38,SE,142,0.0,-999.0,74,-99.99,,,0.00,weatherlink.com 1.10,2013-04-27 12:19:00,
2013-04-27 08:34:00,49.6,40.0,30.38,SE,128,0.0,-999.0,70,-99.99,,,0.00,weatherlink.com 1.10,2013-04-27 12:34:00,
2013-04-27 08:49:00,51.3,40.0,30.38,SE,128,0.0,-999.0,66,-99.99,,,0.00,weatherlink.com 1.10,2013-04-27 12:49:00,
2013-04-27 09:04:00,52.4,39.0,30.38,ENE,61,0.0,-999.0,61,-99.99,,,0.00,weatherlink.com 1.10,2013-04-27 13:04:00,
2013-04-27 09:19:00,53.5,38.0,30.38,NE,53,0.0,-999.0,56,-99.99,,,0.00,weatherlink.com 1.10,2013-04-27 13:19:00,
2013-04-27 09:34:00,54.2,39.0,30.38,North,349,0.0,-999.0,56,-99.99,,,0.00,weatherlink.com 1.10,2013-04-27 13:34:00,
2013-04-27 09:49:00,55.1,39.0,30.37,North,351,0.0,-999.0,55,-99.99,,,0.00,weatherlink.com 1.10,2013-04-27 13:49:00,
2013-04-27 10:04:00,55.4,39.0,30.37,North,355,0.0,-999.0,54,-99.99,,,0.00,weatherlink.com 1.10,2013-04-27 14:04:00,
2013-04-27 10:19:00,57.0,40.0,30.36,SW,216,0.0,-999.0,54,-99.99,,,0.00,weatherlink.com 1.10,2013-04-27 14:19:00,
2013-04-27 10:34:00,58.1,38.0,30.37,East,80,0.0,-999.0,48,-99.99,,,0.00,weatherlink.com 1.10,2013-04-27 14:34:00,
2013-04-27 10:49:00,58.1,41.0,30.37,North,360,0.0,-999.0,53,-99.99,,,0.00,weatherlink.com 1.10,2013-04-27 14:49:00,
2013-04-27 11:04:00,59.6,39.0,30.37,SE,136,0.0,-999.0,46,-99.99,,,0.00,weatherlink.com 1.10,2013-04-27 15:04:00,
2013-04-27 11:19:00,60.2,42.0,30.37,WNW,286,0.0,-999.0,51,-99.99,,,0.00,weatherlink.com 1.10,2013-04-27 15:19:00,
2013-04-27 11:34:00,60.6,37.0,30.36,East,91,0.0,-999.0,42,-99.99,,,0.00,weatherlink.com 1.10,2013-04-27 15:34:00,
2013-04-27 11:49:00,60.6,37.0,30.35,East,96,0.0,-999.0,41,-99.99,,,0.00,weatherlink.com 1.10,2013-04-27 15:49:00,
2013-04-27 12:04:00,58.5,37.0,30.35,East,84,0.0,-999.0,45,-99.99,,,0.00,weatherlink.com 1.10,2013-04-27 16:04:00,
2013-04-27 12:19:00,60.7,38.0,30.34,SE,124,0.0,-999.0,44,-99.99,,,0.00,weatherlink.com 1.10,2013-04-27 16:19:00,
2013-04-27 12:34:00,60.0,36.0,30.34,SE,139,0.0,-999.0,41,-99.99,,,0.00,weatherlink.com 1.10,2013-04-27 16:34:00,
2013-04-27 12:49:00,60.4,39.0,30.33,SW,233,0.0,-999.0,45,-99.99,,,0.00,weatherlink.com 1.10,2013-04-27 16:49:00,
2013-04-27 13:04:00,61.0,36.0,30.32,SSW,196,0.0,-999.0,40,-99.99,,,0.00,weatherlink.com 1.10,2013-04-27 17:04:00,
2013-04-27 13:19:00,60.5,38.0,30.32,NNW,333,0.0,-999.0,43,-99.99,,,0.00,weatherlink.com 1.10,2013-04-27 17:19:00,
2013-04-27 13:34:00,60.5,39.0,30.31,NE,37,0.0,-999.0,45,-99.99,,,0.00,weatherlink.com 1.10,2013-04-27 17:34:00,
2013-04-27 13:49:00,61.9,36.0,30.31,WNW,286,0.0,-999.0,39,-99.99,,,0.00,weatherlink.com 1.10,2013-04-27 17:49:00,
2013-04-27 14:04:00,61.1,35.0,30.31,SW,219,0.0,-999.0,38,-99.99,,,0.00,weatherlink.com 1.10,2013-04-27 18:04:00,
2013-04-27 14:19:00,61.2,37.0,30.30,NNW,348,0.0,-999.0,40,-99.99,,,0.00,weatherlink.com 1.10,2013-04-27 18:19:00,
2013-04-27 14:34:00,61.2,35.0,30.30,NW,317,0.0,-999.0,38,-99.99,,,0.00,weatherlink.com 1.10,2013-04-27 18:34:00,
2013-04-27 14:49:00,62.7,38.0,30.29,NW,310,0.0,-999.0,41,-99.99,,,0.00,weatherlink.com 1.10,2013-04-27 18:49:00,
2013-04-27 15:04:00,61.5,35.0,30.29,WSW,247,0.0,-999.0,38,-99.99,,,0.00,weatherlink.com 1.10,2013-04-27 19:04:00,
2013-04-27 15:19:00,62.3,36.0,30.28,NNW,330,0.0,-999.0,38,-99.99,,,0.00,weatherlink.com 1.10,2013-04-27 19:19:00,
2013-04-27 15:34:00,64.0,36.0,30.27,SSE,150,0.0,-999.0,36,-99.99,,,0.00,weatherlink.com 1.10,2013-04-27 19:34:00,
2013-04-27 15:49:00,63.3,37.0,30.27,West,263,0.0,-999.0,38,-99.99,,,0.00,weatherlink.com 1.10,2013-04-27 19:49:00,
2013-04-27 16:04:00,64.1,34.0,30.26,South,184,0.0,-999.0,33,-99.99,,,0.00,weatherlink.com 1.10,2013-04-27 20:04:00,
2013-04-27 16:19:00,64.5,37.0,30.26,SSW,209,0.0,-999.0,36,-99.99,,,0.00,weatherlink.com 1.10,2013-04-27 20:19:00,
2013-04-27 16:34:00,64.8,38.0,30.25,ESE,119,0.0,-999.0,38,-99.99,,,0.00,weatherlink.com 1.10,2013-04-27 20:34:00,
2013-04-27 16:49:00,64.8,39.0,30.25,SE,134,0.0,-999.0,39,-99.99,,,0.00,weatherlink.com 1.10,2013-04-27 20:49:00,
2013-04-27 17:04:00,64.1,36.0,30.25,SE,138,0.0,-999.0,36,-99.99,,,0.00,weatherlink.com 1.10,2013-04-27 21:04:00,
2013-04-27 17:19:00,61.5,35.0,30.25,SSE,150,0.0,-999.0,38,-99.99,,,0.00,weatherlink.com 1.10,2013-04-27 21:19:00,
2013-04-27 17:34:00,61.5,37.0,30.25,ESE,119,0.0,-999.0,41,-99.99,,,0.00,weatherlink.com 1.10,2013-04-27 21:34:00,
2013-04-27 17:49:00,61.5,37.0,30.25,East,90,0.0,-999.0,40,-99.99,,,0.00,weatherlink.com 1.10,2013-04-27 21:49:00,
2013-04-27 18:04:00,59.9,37.0,30.25,SE,144,0.0,-999.0,43,-99.99,,,0.00,weatherlink.com 1.10,2013-04-27 22:04:00,
2013-04-27 18:19:00,59.5,37.0,30.25,SSE,148,0.0,-999.0,43,-99.99,,,0.00,weatherlink.com 1.10,2013-04-27 22:19:00,
2013-04-27 18:34:00,59.5,37.0,30.25,SE,136,0.0,-999.0,43,-99.99,,,0.00,weatherlink.com 1.10,2013-04-27 22:34:00,
2013-04-27 18:49:00,58.5,37.0,30.25,ESE,121,0.0,-999.0,45,-99.99,,,0.00,weatherlink.com 1.10,2013-04-27 22:49:00,
2013-04-27 19:04:00,57.5,37.0,30.25,SE,141,0.0,-999.0,47,-99.99,,,0.00,weatherlink.com 1.10,2013-04-27 23:04:00,
2013-04-27 19:19:00,56.2,38.0,30.25,ESE,123,0.0,-999.0,50,-99.99,,,0.00,weatherlink.com 1.10,2013-04-27 23:19:00,
2013-04-27 19:34:00,54.4,39.0,30.25,SSE,148,0.0,-999.0,56,-99.99,,,0.00,weatherlink.com 1.10,2013-04-27 23:34:00,
2013-04-27 19:49:00,53.4,40.0,30.25,SSE,161,0.0,-999.0,60,-99.99,,,0.00,weatherlink.com 1.10,2013-04-27 23:49:00,
2013-04-27 20:04:00,51.8,39.0,30.25,South,184,0.0,-999.0,62,-99.99,,,0.00,weatherlink.com 1.10,2013-04-28 00:04:00,
2013-04-27 20:19:00,53.5,37.0,30.26,SSW,200,0.0,-999.0,54,-99.99,,,0.00,weatherlink.com 1.10,2013-04-28 00:19:00,
2013-04-27 20:34:00,53.3,37.0,30.27,SSW,194,0.0,-999.0,54,-99.99,,,0.00,weatherlink.com 1.10,2013-04-28 00:34:00,
2013-04-27 20:49:00,52.7,37.0,30.27,SSW,200,0.0,-999.0,55,-99.99,,,0.00,weatherlink.com 1.10,2013-04-28 00:49:00,
2013-04-27 21:04:00,51.6,36.0,30.27,South,186,0.0,-999.0,56,-99.99,,,0.00,weatherlink.com 1.10,2013-04-28 01:04:00,
2013-04-27 21:19:00,50.6,36.0,30.28,South,169,0.0,-999.0,57,-99.99,,,0.00,weatherlink.com 1.10,2013-04-28 01:19:00,
2013-04-27 21:34:00,49.6,36.0,30.28,SSE,165,0.0,-999.0,59,-99.99,,,0.00,weatherlink.com 1.10,2013-04-28 01:34:00,
2013-04-27 21:49:00,48.8,37.0,30.29,SSE,161,0.0,-999.0,63,-99.99,,,0.00,weatherlink.com 1.10,2013-04-28 01:49:00,
2013-04-27 22:04:00,48.5,36.0,30.29,South,170,0.0,-999.0,62,-99.99,,,0.00,weatherlink.com 1.10,2013-04-28 02:04:00,
2013-04-27 22:19:00,48.1,36.0,30.29,South,181,0.0,-999.0,64,-99.99,,,0.00,weatherlink.com 1.10,2013-04-28 02:19:00,
2013-04-27 22:34:00,48.2,36.0,30.29,SSW,201,0.0,-999.0,64,-99.99,,,0.00,weatherlink.com 1.10,2013-04-28 02:34:00,
2013-04-27 22:49:00,47.3,36.0,30.29,SSW,201,0.0,-999.0,66,-99.99,,,0.00,weatherlink.com 1.10,2013-04-28 02:49:00,
2013-04-27 23:04:00,46.5,37.0,30.29,SSW,200,0.0,-999.0,69,-99.99,,,0.00,weatherlink.com 1.10,2013-04-28 03:04:00,
2013-04-27 23:19:00,45.8,37.0,30.29,SSW,200,0.0,-999.0,72,-99.99,,,0.00,weatherlink.com 1.10,2013-04-28 03:19:00,
2013-04-27 23:34:00,45.4,37.0,30.29,SSW,200,0.0,-999.0,73,-99.99,,,0.00,weatherlink.com 1.10,2013-04-28 03:34:00,
2013-04-27 23:49:00,44.0,37.0,30.29,SSW,200,0.0,-999.0,76,-99.99,,,0.00,weatherlink.com 1.10,2013-04-28 03:49:00,